Time;durP1;ratioP1;P1;durP2;ratioP2;P2;SDS_P1;SDS_P2;PMS_P1;PMS_P2;Temp;Humidity;BMP_temperature;BMP_pressure;BME280_temperature;BME280_humidity;BME280_pressure;Samples;Min_cycle;Max_cycle;Signal;HPM_P1;HPM_P2
2023/10/13 00:01:04;;;;;;;;;;;;;;;17.48;100.00;98047.75;5100566;28;19978;-68
2023/10/13 00:03:31;;;;;;;;;;;;;;;17.50;100.00;98048.22;5103046;28;19928;-68
2023/10/13 00:06:00;;;;;;;;;;;;;;;17.51;100.00;98055.22;5097139;28;20404;-68
2023/10/13 00:08:28;;;;;;;;;;;;;;;17.40;100.00;98047.63;5099456;28;19951;-68
2023/10/13 00:10:59;;;;;;;;;;;;;;;17.47;100.00;98054.22;5099420;28;19920;-68
2023/10/13 00:13:27;;;;;;;;;;;;;;;17.46;100.00;98049.91;5103078;28;19935;-68
2023/10/13 00:15:57;;;;;;;;;;;;;;;17.49;100.00;98054.72;5102893;28;19931;-68
2023/10/13 00:18:26;;;;;;;;;;;;;;;17.51;100.00;98057.13;5091682;28;19928;-68
2023/10/13 00:20:56;;;;;;;;;;;;;;;17.50;100.00;98053.63;5099212;28;19993;-68
2023/10/13 00:23:22;;;;;;;;;;;;;;;17.52;100.00;98058.69;5091795;28;19925;-68
2023/10/13 00:25:58;;;;;;;;;;;;;;;17.51;100.00;98052.53;5099323;28;19959;-68
2023/10/13 00:28:35;;;;;;;;;;;;;;;17.53;100.00;98047.63;5091797;28;19980;-68
2023/10/13 00:31:10;;;;;;;;;;;;;;;17.48;100.00;98050.44;5099896;28;19995;-68
2023/10/13 00:33:37;;;;;;;;;;;;;;;17.35;100.00;98053.16;5102668;28;19987;-68
2023/10/13 00:36:05;;;;;;;;;;;;;;;17.28;100.00;98045.47;5096029;28;19953;-68
2023/10/13 00:38:31;;;;;;;;;;;;;;;17.31;100.00;98038.66;5098942;28;20000;-68
2023/10/13 00:41:03;;;;;;;;;;;;;;;17.33;100.00;98039.94;5099803;28;19936;-68
2023/10/13 00:43:35;;;;;;;;;;;;;;;17.35;100.00;98037.75;5102829;28;19927;-68
2023/10/13 00:46:07;;;;;;;;;;;;;;;17.38;100.00;98030.94;5101637;28;19920;-68
2023/10/13 00:48:35;;;;;;;;;;;;;;;17.35;100.00;98021.56;5101104;28;19931;-68
2023/10/13 00:51:02;;;;;;;;;;;;;;;17.24;100.00;98029.06;5104319;28;19933;-68
2023/10/13 00:53:30;;;;;;;;;;;;;;;17.30;100.00;98021.66;5106921;28;19925;-68
2023/10/13 00:55:56;;;;;;;;;;;;;;;17.38;100.00;98030.94;5106206;28;19924;-67
2023/10/13 00:58:22;;;;;;;;;;;;;;;17.40;100.00;98031.44;5101846;28;19975;-67
2023/10/13 01:00:56;;;;;;;;;;;;;;;17.40;100.00;98031.44;5102949;28;19925;-67
2023/10/13 01:03:25;;;;;;;;;;;;;;;17.39;100.00;98029.88;5095124;28;19931;-67
2023/10/13 01:05:54;;;;;;;;;;;;;;;17.25;100.00;98038.78;5100528;28;19943;-68
2023/10/13 01:08:23;;;;;;;;;;;;;;;17.25;100.00;98033.38;5094675;28;20388;-68
2023/10/13 01:10:49;;;;;;;;;;;;;;;17.19;100.00;98031.09;5102819;28;19952;-67
2023/10/13 01:13:17;;;;;;;;;;;;;;;17.13;100.00;98026.91;5105805;28;19940;-67
2023/10/13 01:15:42;;;;;;;;;;;;;;;17.21;100.00;98034.28;5106055;28;19950;-67
2023/10/13 01:18:13;;;;;;;;;;;;;;;17.30;100.00;98040.56;5103930;28;19924;-67
2023/10/13 01:20:49;;;;;;;;;;;;;;;17.12;100.00;98028.78;5102555;28;19921;-68
2023/10/13 01:23:19;;;;;;;;;;;;;;;17.04;100.00;98024.13;5105279;28;20410;-68
2023/10/13 01:25:45;;;;;;;;;;;;;;;17.09;100.00;98015.91;5105940;28;20304;-68
2023/10/13 01:28:15;;;;;;;;;;;;;;;17.13;100.00;98030.41;5103373;28;19968;-68
2023/10/13 01:30:41;;;;;;;;;;;;;;;17.18;100.00;98032.19;5102099;28;19928;-68
2023/10/13 01:33:09;;;;;;;;;;;;;;;17.20;100.00;98030.81;5104097;28;19999;-68
2023/10/13 01:35:37;;;;;;;;;;;;;;;17.18;100.00;98018.69;5105689;28;19928;-68
2023/10/13 01:38:04;;;;;;;;;;;;;;;17.20;100.00;98020.00;5100904;28;19932;-68
2023/10/13 01:40:33;;;;;;;;;;;;;;;17.22;100.00;98015.09;5105714;28;19924;-68
2023/10/13 01:42:59;;;;;;;;;;;;;;;17.22;100.00;98025.88;5105448;28;19932;-68
2023/10/13 01:45:28;;;;;;;;;;;;;;;17.23;100.00;98026.69;5102019;28;19955;-68
2023/10/13 01:47:55;;;;;;;;;;;;;;;17.23;100.00;98032.09;5102150;28;19929;-68
2023/10/13 01:50:28;;;;;;;;;;;;;;;17.26;100.00;98036.88;5105462;28;19928;-68
2023/10/13 01:53:00;;;;;;;;;;;;;;;17.28;100.00;98040.06;5105477;28;19935;-68
2023/10/13 01:55:28;;;;;;;;;;;;;;;17.15;100.00;98038.19;5101886;28;19927;-68
2023/10/13 01:57:55;;;;;;;;;;;;;;;17.11;100.00;98039.91;5101707;28;20500;-68
2023/10/13 02:00:21;;;;;;;;;;;;;;;17.06;100.00;98032.69;5104663;28;19959;-68
2023/10/13 02:02:49;;;;;;;;;;;;;;;17.09;100.00;98032.09;5105104;28;19924;-68
2023/10/13 02:05:17;;;;;;;;;;;;;;;17.04;100.00;98028.72;5102074;28;19920;-68
2023/10/13 02:07:45;;;;;;;;;;;;;;;16.91;100.00;98033.03;5097417;28;20018;-68
2023/10/13 02:10:12;;;;;;;;;;;;;;;16.92;100.00;98031.13;5102876;28;19924;-68
2023/10/13 02:12:42;;;;;;;;;;;;;;;16.93;100.00;98038.91;5101539;28;19924;-68
2023/10/13 02:15:12;;;;;;;;;;;;;;;16.93;100.00;98036.19;5102219;28;19951;-68
2023/10/13 02:17:41;;;;;;;;;;;;;;;16.96;100.00;98027.50;5105111;28;19946;-68
2023/10/13 02:20:10;;;;;;;;;;;;;;;17.00;100.00;98023.13;5103128;28;19956;-68
2023/10/13 02:22:38;;;;;;;;;;;;;;;17.04;100.00;98026.00;5101992;28;19964;-68
2023/10/13 02:25:05;;;;;;;;;;;;;;;17.05;100.00;98025.69;5103017;28;19929;-68
2023/10/13 02:27:40;;;;;;;;;;;;;;;17.05;100.00;98019.53;5103932;28;19928;-68
2023/10/13 02:30:12;;;;;;;;;;;;;;;17.04;100.00;98018.72;5103128;28;19987;-68
2023/10/13 02:32:41;;;;;;;;;;;;;;;17.04;100.00;98018.72;5101051;28;19925;-68
2023/10/13 02:35:14;;;;;;;;;;;;;;;17.04;100.00;98028.72;5103002;28;19995;-68
2023/10/13 02:37:43;;;;;;;;;;;;;;;17.03;100.00;98019.81;5099389;28;19983;-68
2023/10/13 02:40:10;;;;;;;;;;;;;;;17.03;100.00;98016.31;5102690;28;19949;-68
2023/10/13 02:42:36;;;;;;;;;;;;;;;17.02;100.00;98017.44;5101300;28;19931;-68
2023/10/13 02:45:04;;;;;;;;;;;;;;;16.97;100.00;98015.63;5102119;28;19932;-68
2023/10/13 02:47:31;;;;;;;;;;;;;;;16.96;100.00;98011.31;5104829;28;19930;-68
2023/10/13 02:50:00;;;;;;;;;;;;;;;16.95;100.00;98015.13;5104869;28;20269;-68
2023/10/13 02:52:26;;;;;;;;;;;;;;;16.92;100.00;98020.34;5099983;28;19931;-68
2023/10/13 02:54:53;;;;;;;;;;;;;;;16.88;100.00;98020.13;5100820;28;19988;-68
2023/10/13 02:57:18;;;;;;;;;;;;;;;16.92;100.00;98014.94;5104191;28;19924;-67
2023/10/13 02:59:47;;;;;;;;;;;;;;;16.94;100.00;98016.22;5104139;28;19931;-67
2023/10/13 03:02:17;;;;;;;;;;;;;;;16.72;100.00;98014.25;5101443;28;19928;-67
2023/10/13 03:04:44;;;;;;;;;;;;;;;16.67;100.00;98010.84;5100377;28;20067;-67
2023/10/13 03:07:15;;;;;;;;;;;;;;;16.70;100.00;98018.34;5097336;28;20046;-67
2023/10/13 03:09:50;;;;;;;;;;;;;;;16.31;100.00;98015.28;5104050;28;19930;-67
2023/10/13 03:12:15;;;;;;;;;;;;;;;16.12;100.00;98012.66;5098887;28;19992;-68
2023/10/13 03:14:42;;;;;;;;;;;;;;;16.35;100.00;98005.50;5100335;28;19929;-68
2023/10/13 03:17:09;;;;;;;;;;;;;;;16.31;100.00;98009.91;5102130;28;19935;-68
2023/10/13 03:19:36;;;;;;;;;;;;;;;16.24;100.00;98012.19;5103857;28;19924;-68
2023/10/13 03:22:09;;;;;;;;;;;;;;;16.24;100.00;98006.78;5103072;28;19931;-67
2023/10/13 03:24:36;;;;;;;;;;;;;;;16.11;100.00;98008.34;5100929;28;19924;-67
2023/10/13 03:27:08;;;;;;;;;;;;;;;16.22;100.00;98014.38;5101267;28;19924;-67
2023/10/13 03:29:34;;;;;;;;;;;;;;;16.38;100.00;98010.28;5103885;28;19920;-67
2023/10/13 03:32:06;;;;;;;;;;;;;;;16.15;100.00;98014.75;5102444;28;19924;-67
2023/10/13 03:34:34;;;;;;;;;;;;;;;16.08;100.00;98012.44;5100241;28;19928;-67
2023/10/13 03:37:10;;;;;;;;;;;;;;;16.26;100.00;98010.78;5095843;28;19924;-68
2023/10/13 03:39:38;;;;;;;;;;;;;;;16.19;100.00;98013.03;5103640;28;19924;-68
2023/10/13 03:42:07;;;;;;;;;;;;;;;16.19;100.00;98007.66;5102224;28;19924;-68
2023/10/13 03:44:38;;;;;;;;;;;;;;;16.24;100.00;98014.88;5100485;28;20003;-67
2023/10/13 03:47:17;;;;;;;;;;;;;;;16.09;100.00;98011.31;5101638;28;19935;-67
2023/10/13 03:49:44;;;;;;;;;;;;;;;16.02;100.00;98002.03;5103745;28;19949;-68
2023/10/13 03:52:13;;;;;;;;;;;;;;;16.11;100.00;98005.66;5101337;28;19924;-69
2023/10/13 03:54:41;;;;;;;;;;;;;;;15.89;100.00;98008.19;5100123;28;19967;-68
2023/10/13 03:57:11;;;;;;;;;;;;;;;15.99;100.00;98014.22;5101744;28;19954;-67
2023/10/13 03:59:38;;;;;;;;;;;;;;;16.16;100.00;98011.75;5103176;28;19924;-67
2023/10/13 04:02:11;;;;;;;;;;;;;;;16.33;100.00;98005.81;5101954;28;19927;-68
2023/10/13 04:04:48;;;;;;;;;;;;;;;16.44;100.00;98001.00;5099781;28;19946;-68
2023/10/13 04:07:38;;;;;;;;;;;;;;;16.41;100.00;98004.28;5097216;28;19920;-67
2023/10/13 04:16:01;;;;;;;;;;;;;;;16.53;100.00;97999.22;5093451;28;19963;-67
2023/10/13 04:18:34;;;;;;;;;;;;;;;16.54;100.00;97998.97;5092042;28;19924;-67
2023/10/13 04:21:18;;;;;;;;;;;;;;;16.52;100.00;97986.84;5100057;28;19935;-67
2023/10/13 04:26:36;;;;;;;;;;;;;;;16.06;100.00;97993.06;5091152;28;19932;-67
2023/10/13 04:29:10;;;;;;;;;;;;;;;15.88;100.00;98002.00;5100029;28;19939;-67
2023/10/13 04:31:57;;;;;;;;;;;;;;;15.71;100.00;97996.38;5102367;28;19948;-67
2023/10/13 04:34:28;;;;;;;;;;;;;;;15.69;100.00;98003.13;5090788;28;20304;-68
2023/10/13 04:37:11;;;;;;;;;;;;;;;16.02;100.00;98002.03;5093846;28;19920;-67
2023/10/13 04:39:38;;;;;;;;;;;;;;;15.91;100.00;97989.81;5092955;28;19944;-68
2023/10/13 04:42:13;;;;;;;;;;;;;;;15.81;100.00;97998.91;5100113;28;19920;-68
2023/10/13 04:44:48;;;;;;;;;;;;;;;15.78;100.00;97999.50;5102626;28;19924;-68
2023/10/13 04:47:21;;;;;;;;;;;;;;;15.60;100.00;97982.25;5100283;28;19946;-68
2023/10/13 04:49:54;;;;;;;;;;;;;;;15.33;100.00;97992.88;5099179;28;19928;-68
2023/10/13 04:55:09;;;;;;;;;;;;;;;15.12;100.00;98000.44;5094711;28;19954;-67
2023/10/13 04:57:47;;;;;;;;;;;;;;;15.53;100.00;97989.13;5101487;28;19955;-67
2023/10/13 05:03:40;;;;;;;;;;;;;;;15.49;100.00;97991.59;5098611;28;19951;-67
2023/10/13 05:44:37;;;;;;;;;;;;;;;15.75;100.00;98007.34;5094220;28;19955;-67
2023/10/13 05:47:46;;;;;;;;;;;;;;;15.76;100.00;98009.72;5103302;28;19928;-67
2023/10/13 05:50:28;;;;;;;;;;;;;;;15.71;100.00;98000.94;5103482;28;19955;-67
2023/10/13 06:28:52;;;;;;;;;;;;;;;15.53;100.00;98027.59;5104870;28;19934;-66
2023/10/13 06:31:25;;;;;;;;;;;;;;;15.28;100.00;98030.63;5101390;28;19925;-67
2023/10/13 06:33:55;;;;;;;;;;;;;;;15.21;100.00;98029.38;5101327;28;20462;-67
2023/10/13 06:36:23;;;;;;;;;;;;;;;14.99;100.00;98027.22;5087703;28;19991;-67
2023/10/13 06:38:55;;;;;;;;;;;;;;;15.10;100.00;98016.03;5101105;28;19928;-67
2023/10/13 06:41:30;;;;;;;;;;;;;;;15.18;100.00;98029.94;5092959;28;19921;-67
2023/10/13 06:44:00;;;;;;;;;;;;;;;15.36;100.00;98021.88;5100990;28;19956;-67
2023/10/13 06:46:33;;;;;;;;;;;;;;;15.59;100.00;98028.31;5104344;28;19920;-67
2023/10/13 06:49:02;;;;;;;;;;;;;;;15.78;100.00;98029.13;5103936;28;19930;-67
2023/10/13 06:51:37;;;;;;;;;;;;;;;15.91;100.00;98014.88;5099876;28;19924;-67
2023/10/13 06:54:09;;;;;;;;;;;;;;;15.75;100.00;98028.91;5101894;28;19925;-67
2023/10/13 06:56:39;;;;;;;;;;;;;;;15.69;100.00;98017.38;5104357;28;19967;-67
2023/10/13 06:59:06;;;;;;;;;;;;;;;15.53;100.00;98029.50;5102770;28;19924;-67
2023/10/13 07:01:38;;;;;;;;;;;;;;;15.47;100.00;98033.31;5100864;28;19924;-67
2023/10/13 07:04:05;;;;;;;;;;;;;;;15.48;100.00;98022.28;5102085;28;19971;-67
2023/10/13 07:06:33;;;;;;;;;;;;;;;15.38;100.00;98027.75;5097230;28;20023;-67
2023/10/13 07:09:04;;;;;;;;;;;;;;;15.35;100.00;98030.25;5101564;28;19934;-67
2023/10/13 07:11:34;;;;;;;;;;;;;;;15.25;100.00;98030.41;5104113;28;19924;-67
2023/10/13 07:13:59;;;;;;;;;;;;;;;15.07;100.00;98032.75;5103745;28;19946;-67
2023/10/13 07:16:35;;;;;;;;;;;;;;;15.07;100.00;98043.50;5100633;28;19920;-68
2023/10/13 07:19:05;;;;;;;;;;;;;;;14.98;100.00;98042.56;5101309;28;19931;-68
2023/10/13 07:21:33;;;;;;;;;;;;;;;15.00;100.00;98048.47;5104269;28;19924;-68
2023/10/13 07:24:08;;;;;;;;;;;;;;;14.94;100.00;98051.50;5103394;28;19920;-68
2023/10/13 07:26:35;;;;;;;;;;;;;;;15.18;100.00;98038.00;5100468;28;19971;-68
2023/10/13 07:29:01;;;;;;;;;;;;;;;15.22;100.00;98049.81;5101060;28;19924;-68
2023/10/13 07:31:28;;;;;;;;;;;;;;;15.11;100.00;98046.44;5103694;28;19931;-68
2023/10/13 07:34:04;;;;;;;;;;;;;;;15.44;100.00;98045.44;5103685;28;19935;-69
2023/10/13 07:36:34;;;;;;;;;;;;;;;15.24;100.00;98040.34;5087930;28;20619;-68
2023/10/13 07:39:13;;;;;;;;;;;;;;;15.26;100.00;98034.66;5100732;28;19924;-68
2023/10/13 07:41:41;;;;;;;;;;;;;;;15.28;100.00;98036.00;5103814;28;19951;-68
2023/10/13 07:44:08;;;;;;;;;;;;;;;15.27;100.00;98037.09;5102420;28;19954;-68
2023/10/13 07:46:35;;;;;;;;;;;;;;;15.31;100.00;98024.66;5100240;28;19955;-68
2023/10/13 07:49:09;;;;;;;;;;;;;;;15.41;100.00;98037.19;5100745;28;19928;-68
2023/10/13 07:51:44;;;;;;;;;;;;;;;15.46;100.00;98037.09;5103361;28;19931;-68
2023/10/13 07:54:13;;;;;;;;;;;;;;;15.62;100.00;98027.75;5101275;28;20374;-68
2023/10/13 07:56:40;;;;;;;;;;;;;;;15.63;100.00;98037.38;5099860;28;19947;-68
2023/10/13 07:59:08;;;;;;;;;;;;;;;15.67;100.00;98027.66;5100646;28;19924;-68
2023/10/13 08:01:35;;;;;;;;;;;;;;;15.72;100.00;98026.78;5103247;28;19928;-66
2023/10/13 08:04:11;;;;;;;;;;;;;;;15.77;100.00;98021.31;5102339;28;19935;-68
2023/10/13 08:06:38;;;;;;;;;;;;;;;15.80;100.00;98026.91;5093921;28;19946;-68
2023/10/13 08:09:29;;;;;;;;;;;;;;;15.81;100.00;98031.22;5100667;28;19925;-67
2023/10/13 08:11:56;;;;;;;;;;;;;;;15.92;100.00;98021.88;5102649;28;19928;-67
2023/10/13 08:14:23;;;;;;;;;;;;;;;16.03;100.00;98023.28;5091433;28;20007;-68
2023/10/13 08:16:59;;;;;;;;;;;;;;;16.07;100.00;98027.00;5099342;28;19925;-68
2023/10/13 08:19:28;;;;;;;;;;;;;;;16.10;100.00;98012.94;5091789;28;20003;-68
2023/10/13 08:21:57;;;;;;;;;;;;;;;16.21;100.00;98013.56;5099200;28;19934;-68
2023/10/13 08:24:28;;;;;;;;;;;;;;;16.23;100.00;98010.56;5091270;28;19928;-68
2023/10/13 08:27:34;;;;;;;;;;;;;;;16.25;100.00;98014.56;5099292;28;19932;-68
2023/10/13 08:32:54;;;;;;;;;;;;;;;16.40;100.00;98008.13;5102401;28;19920;-68
2023/10/13 08:35:33;;;;;;;;;;;;;;;16.50;100.00;98007.91;5099090;28;19925;-67
2023/10/13 08:38:04;;;;;;;;;;;;;;;16.60;100.00;98005.03;5096219;28;19928;-66
2023/10/13 08:43:17;;;;;;;;;;;;;;;16.76;100.00;98014.44;5101605;28;19947;-67
2023/10/13 08:45:58;;;;;;;;;;;;;;;16.88;100.00;98009.34;5102654;28;19979;-67
2023/10/13 08:48:31;;;;;;;;;;;;;;;17.02;100.00;98014.72;5091582;28;19932;-67
2023/10/13 08:51:04;;;;;;;;;;;;;;;17.10;100.00;98003.22;5099400;28;19924;-68
2023/10/13 08:53:33;;;;;;;;;;;;;;;17.17;100.00;97999.03;5102737;28;19951;-68
2023/10/13 08:56:05;;;;;;;;;;;;;;;17.26;100.00;98002.59;5102206;28;19924;-67
2023/10/13 09:04:20;;;;;;;;;;;;;;;17.58;100.00;97993.50;5101781;28;19924;-68
2023/10/13 09:06:47;;;;;;;;;;;;;;;17.62;100.00;97989.09;5093054;28;19931;-67
2023/10/13 09:09:26;;;;;;;;;;;;;;;17.47;100.00;97992.13;5102722;28;19925;-67
2023/10/13 09:12:04;;;;;;;;;;;;;;;17.55;100.00;97990.63;5106515;28;19924;-69
2023/10/13 09:14:36;;;;;;;;;;;;;;;17.73;100.00;97990.44;5095790;28;19936;-69
2023/10/13 09:17:08;;;;;;;;;;;;;;;17.80;100.00;98000.81;5103651;28;19929;-68
2023/10/13 09:19:45;;;;;;;;;;;;;;;17.74;100.00;97996.66;5105989;28;19924;-69
2023/10/13 09:22:24;;;;;;;;;;;;;;;17.99;100.00;98001.44;5103981;28;19924;-69
2023/10/13 09:24:52;;;;;;;;;;;;;;;18.13;100.00;97991.34;5102846;28;19951;-68
2023/10/13 09:27:17;;;;;;;;;;;;;;;18.23;100.00;97992.97;5102751;28;19983;-68
2023/10/13 09:29:55;;;;;;;;;;;;;;;18.37;100.00;97987.50;5102837;28;19931;-68
2023/10/13 09:32:21;;;;;;;;;;;;;;;18.46;100.00;97982.91;5094101;28;19967;-68
2023/10/13 09:34:48;;;;;;;;;;;;;;;18.56;100.00;97982.69;5102439;28;19924;-68
2023/10/13 09:37:20;;;;;;;;;;;;;;;18.67;100.00;97978.56;5099283;28;20562;-68
2023/10/13 09:39:48;;;;;;;;;;;;;;;18.35;100.00;97977.78;5105837;28;19931;-68
2023/10/13 09:42:16;;;;;;;;;;;;;;;18.23;100.00;97974.06;5103347;28;19924;-68
2023/10/13 09:44:49;;;;;;;;;;;;;;;18.57;100.00;97968.06;5102502;28;19924;-68
2023/10/13 09:47:24;;;;;;;;;;;;;;;18.83;100.00;97975.13;5105065;28;19989;-68
2023/10/13 09:49:52;;;;;;;;;;;;;;;18.97;100.00;97964.16;5106056;28;19924;-67
2023/10/13 09:52:26;;;;;;;;;;;;;;;19.09;100.00;97953.53;5094386;28;20585;-67
2023/10/13 09:54:59;;;;;;;;;;;;;;;19.21;100.00;97951.00;5102514;28;19924;-67
2023/10/13 09:57:29;;;;;;;;;;;;;;;19.36;100.00;97952.44;5094974;28;19952;-68
2023/10/13 10:00:05;;;;;;;;;;;;;;;19.43;100.00;97949.28;5102451;28;19958;-68
2023/10/13 10:02:40;;;;;;;;;;;;;;;19.58;100.00;97940.66;5095487;28;19924;-68
2023/10/13 10:05:12;;;;;;;;;;;;;;;19.69;100.00;97944.63;5103721;28;19954;-67
2023/10/13 10:07:40;;;;;;;;;;;;;;;19.88;100.00;97948.56;5099855;28;19924;-68
2023/10/13 10:10:08;;;;;;;;;;;;;;;19.98;100.00;97936.59;5104662;28;19920;-69
2023/10/13 10:12:39;;;;;;;;;;;;;;;20.15;100.00;97935.72;5104156;28;19921;-69
2023/10/13 10:15:20;;;;;;;;;;;;;;;20.28;100.00;97935.56;5105845;28;19916;-68
2023/10/13 10:17:55;;;;;;;;;;;;;;;20.43;100.00;97928.81;5107766;28;19923;-68
2023/10/13 10:20:32;;;;;;;;;;;;;;;20.51;100.00;97922.56;5094438;28;20355;-68
2023/10/13 10:23:00;;;;;;;;;;;;;;;20.56;100.00;97924.28;5101828;28;19925;-69
2023/10/13 10:25:34;;;;;;;;;;;;;;;20.70;100.00;97922.13;5104926;28;19927;-69
2023/10/13 10:28:04;;;;;;;;;;;;;;;20.84;100.00;97928.09;5104644;28;19931;-69
2023/10/13 10:30:33;;;;;;;;;;;;;;;20.93;100.00;97918.78;5101682;28;19920;-65
2023/10/13 10:33:07;;;;;;;;;;;;;;;20.96;100.00;97922.75;5102060;28;19942;-64
2023/10/13 10:35:34;;;;;;;;;;;;;;;21.15;100.00;97920.41;5104969;28;19930;-65
2023/10/13 10:38:11;;;;;;;;;;;;;;;21.10;100.00;97920.63;5097869;28;20380;-67
2023/10/13 10:40:51;;;;;;;;;;;;;;;21.09;100.00;97910.88;5101401;28;19970;-68
2023/10/13 10:43:18;;;;;;;;;;;;;;;21.07;100.00;97915.81;5104267;28;19924;-68
2023/10/13 10:45:48;;;;;;;;;;;;;;;21.24;84.25;97907.56;5104503;28;19942;-68
2023/10/13 10:48:20;;;;;;;;;;;;;;;21.17;97.02;97904.56;5102178;28;19924;-67
2023/10/13 10:50:53;;;;;;;;;;;;;;;21.10;98.51;97896.19;5101006;28;19959;-68
2023/10/13 10:53:22;;;;;;;;;;;;;;;21.11;98.83;97886.09;5104248;28;19963;-68
2023/10/13 10:55:48;;;;;;;;;;;;;;;21.06;100.00;97884.34;5104547;28;19948;-68
2023/10/13 10:58:28;;;;;;;;;;;;;;;21.16;100.00;97884.00;5101827;28;20485;-67
2023/10/13 11:01:10;;;;;;;;;;;;;;;21.28;87.69;97875.09;5099682;28;19975;-67
2023/10/13 11:03:41;;;;;;;;;;;;;;;21.63;84.79;97876.38;5094520;28;19924;-67
2023/10/13 11:06:17;;;;;;;;;;;;;;;21.71;90.16;97872.75;5097929;28;19929;-67
2023/10/13 11:08:51;;;;;;;;;;;;;;;21.75;84.37;97862.00;5101042;28;19988;-67
2023/10/13 11:11:18;;;;;;;;;;;;;;;21.78;87.05;97862.13;5103770;28;19924;-68
2023/10/13 11:13:50;;;;;;;;;;;;;;;21.90;85.07;97861.38;5104326;28;19959;-68
2023/10/13 11:16:23;;;;;;;;;;;;;;;22.04;79.23;97845.53;5101598;28;19951;-67
2023/10/13 11:19:01;;;;;;;;;;;;;;;22.14;80.59;97847.81;5100542;28;19925;-67
2023/10/13 11:21:30;;;;;;;;;;;;;;;22.03;77.53;97846.69;5092950;28;19924;-67
2023/10/13 11:23:57;;;;;;;;;;;;;;;22.23;78.37;97834.91;5100297;28;19932;-67
2023/10/13 11:26:33;;;;;;;;;;;;;;;22.28;76.30;97833.88;5102700;28;19950;-67
2023/10/13 11:29:04;;;;;;;;;;;;;;;21.99;84.99;97821.28;5103330;28;19924;-68
2023/10/13 11:31:31;;;;;;;;;;;;;;;22.16;78.43;97823.00;5099906;28;19925;-68
2023/10/13 11:34:01;;;;;;;;;;;;;;;22.27;78.79;97822.22;5099329;28;19924;-68
2023/10/13 11:36:32;;;;;;;;;;;;;;;22.44;76.29;97816.50;5096191;28;19924;-68
2023/10/13 11:38:59;;;;;;;;;;;;;;;22.35;75.88;97813.13;5100514;28;19995;-68
2023/10/13 11:41:33;;;;;;;;;;;;;;;22.58;71.64;97806.06;5103704;28;19924;-68
2023/10/13 11:44:23;;;;;;;;;;;;;;;22.82;67.84;97801.72;5102926;28;19920;-66
2023/10/13 11:46:55;;;;;;;;;;;;;;;22.96;69.40;97796.69;5100156;28;20525;-67
2023/10/13 11:49:32;;;;;;;;;;;;;;;22.92;69.08;97793.06;5091968;28;20013;-67
2023/10/13 11:52:10;;;;;;;;;;;;;;;23.03;63.96;97784.06;5100309;28;19935;-67
2023/10/13 11:54:41;;;;;;;;;;;;;;;23.12;63.06;97783.91;5103489;28;19959;-67
2023/10/13 11:57:08;;;;;;;;;;;;;;;23.07;64.54;97776.78;5101773;28;19924;-68
2023/10/13 11:59:36;;;;;;;;;;;;;;;22.62;70.32;97775.44;5099650;28;19924;-67
2023/10/13 12:04:51;;;;;;;;;;;;;;;22.59;70.08;97774.97;5102963;28;19950;-68
2023/10/13 12:07:20;;;;;;;;;;;;;;;22.70;70.73;97766.38;5091300;28;19924;-68
2023/10/13 12:10:03;;;;;;;;;;;;;;;22.86;66.78;97759.06;5102992;28;20402;-68
2023/10/13 12:12:30;;;;;;;;;;;;;;;22.22;75.75;97761.81;5092537;28;19925;-68
2023/10/13 12:14:57;;;;;;;;;;;;;;;22.22;76.48;97759.84;5099785;28;19920;-68
2023/10/13 12:17:27;;;;;;;;;;;;;;;22.40;75.93;97758.50;5101682;28;19924;-68
2023/10/13 12:19:54;;;;;;;;;;;;;;;22.58;71.96;97746.19;5102643;28;19959;-68
2023/10/13 12:22:28;;;;;;;;;;;;;;;22.47;78.01;97747.78;5099441;28;19928;-68
2023/10/13 12:24:55;;;;;;;;;;;;;;;22.61;70.59;97736.53;5099444;28;19929;-68
2023/10/13 12:27:23;;;;;;;;;;;;;;;22.61;72.43;97741.97;5091073;28;19920;-68
2023/10/13 12:29:51;;;;;;;;;;;;;;;22.71;66.63;97735.28;5099514;28;19939;-67
2023/10/13 12:32:22;;;;;;;;;;;;;;;23.14;62.37;97729.88;5102568;28;19924;-67
2023/10/13 12:35:00;;;;;;;;;;;;;;;23.28;61.31;97730.25;5103276;28;19924;-69
2023/10/13 12:37:49;;;;;;;;;;;;;;;23.33;60.41;97730.00;5087174;28;19950;-68
2023/10/13 12:51:20;;;;;;;;;;;;;;;23.82;57.34;97703.19;5101381;28;19957;-68
2023/10/13 12:53:49;;;;;;;;;;;;;;;23.56;60.23;97692.84;5103011;28;19981;-68
2023/10/13 12:56:15;;;;;;;;;;;;;;;23.24;62.93;97688.47;5100362;28;19928;-68
2023/10/13 12:58:42;;;;;;;;;;;;;;;23.43;59.69;97682.38;5099374;28;19988;-68
2023/10/13 13:01:08;;;;;;;;;;;;;;;23.96;55.03;97684.41;5100940;28;19958;-67
2023/10/13 13:03:35;;;;;;;;;;;;;;;24.09;62.10;97685.88;5102676;28;19951;-68
2023/10/13 13:06:07;;;;;;;;;;;;;;;24.22;65.23;97683.88;5095852;28;19929;-68
2023/10/13 13:08:35;;;;;;;;;;;;;;;24.40;65.45;97678.78;5099153;28;19924;-68
2023/10/13 13:11:03;;;;;;;;;;;;;;;24.49;65.37;97671.94;5100072;28;20611;-67
2023/10/13 13:13:31;;;;;;;;;;;;;;;24.62;61.17;97676.13;5103329;28;20007;-68
2023/10/13 13:15:58;;;;;;;;;;;;;;;24.62;56.73;97673.41;5102245;28;19924;-67
2023/10/13 13:18:24;;;;;;;;;;;;;;;24.64;55.56;97668.34;5099081;28;19959;-67
2023/10/13 13:20:54;;;;;;;;;;;;;;;22.95;64.73;97669.81;5098878;28;19947;-68
2023/10/13 13:23:21;;;;;;;;;;;;;;;22.99;65.05;97654.38;5102208;28;19924;-67
2023/10/13 13:25:47;;;;;;;;;;;;;;;23.35;61.01;97645.94;5102471;28;19924;-67
2023/10/13 13:28:16;;;;;;;;;;;;;;;23.86;53.78;97648.75;5099722;28;19920;-68
2023/10/13 13:30:42;;;;;;;;;;;;;;;23.98;55.20;97640.44;5098683;28;19931;-68
2023/10/13 13:33:11;;;;;;;;;;;;;;;24.36;52.21;97635.03;5100404;28;19925;-68
2023/10/13 13:35:38;;;;;;;;;;;;;;;24.04;50.67;97633.56;5101456;28;19924;-68
2023/10/13 13:38:09;;;;;;;;;;;;;;;23.00;58.89;97634.16;5096421;28;19924;-68
2023/10/13 13:40:37;;;;;;;;;;;;;;;23.61;55.65;97621.69;5098893;28;19924;-68
2023/10/13 13:43:04;;;;;;;;;;;;;;;23.72;55.37;97624.66;5099838;28;19924;-68
2023/10/13 13:45:34;;;;;;;;;;;;;;;23.22;58.74;97624.59;5102281;28;19930;-68
2023/10/13 13:48:07;;;;;;;;;;;;;;;23.42;56.01;97620.84;5101547;28;19946;-68
2023/10/13 13:50:39;;;;;;;;;;;;;;;22.27;63.38;97623.63;5098608;28;19929;-68
2023/10/13 13:53:09;;;;;;;;;;;;;;;22.36;65.51;97616.09;5099894;28;19947;-66
2023/10/13 13:55:35;;;;;;;;;;;;;;;22.83;56.80;97610.00;5102630;28;19924;-66
2023/10/13 13:58:04;;;;;;;;;;;;;;;22.74;62.12;97607.44;5104819;28;19920;-66
2023/10/13 14:00:38;;;;;;;;;;;;;;;22.88;62.02;97607.81;5101872;28;19935;-67
2023/10/13 14:03:04;;;;;;;;;;;;;;;23.15;57.53;97597.19;5101699;28;19980;-66
2023/10/13 14:05:31;;;;;;;;;;;;;;;22.80;64.19;97597.88;5105216;28;19920;-66
2023/10/13 14:07:57;;;;;;;;;;;;;;;22.49;70.23;97595.88;5099254;28;19928;-66
2023/10/13 14:10:32;;;;;;;;;;;;;;;22.86;58.18;97590.25;5101629;28;19967;-66
2023/10/13 14:13:06;;;;;;;;;;;;;;;23.33;56.07;97582.84;5101810;28;19932;-66
2023/10/13 14:15:43;;;;;;;;;;;;;;;22.95;62.51;97574.50;5105135;28;19946;-66
2023/10/13 14:18:14;;;;;;;;;;;;;;;23.10;61.75;97574.50;5102992;28;19959;-66
2023/10/13 14:20:41;;;;;;;;;;;;;;;22.53;66.63;97563.28;5101506;28;19963;-66
2023/10/13 14:23:11;;;;;;;;;;;;;;;22.04;69.14;97568.94;5102995;28;19931;-66
2023/10/13 14:25:38;;;;;;;;;;;;;;;22.85;54.30;97559.50;5104648;28;19988;-67
2023/10/13 14:28:05;;;;;;;;;;;;;;;22.69;68.88;97558.69;5103467;28;20050;-69
2023/10/13 14:30:31;;;;;;;;;;;;;;;22.76;66.61;97560.81;5100020;28;19984;-67
2023/10/13 14:32:59;;;;;;;;;;;;;;;23.26;61.06;97546.47;5101243;28;19924;-68
2023/10/13 14:35:26;;;;;;;;;;;;;;;23.39;60.10;97554.22;5105042;28;19946;-68
2023/10/13 14:37:53;;;;;;;;;;;;;;;23.28;63.64;97544.16;5098694;28;19974;-67
2023/10/13 14:40:21;;;;;;;;;;;;;;;23.24;64.01;97537.88;5101314;28;19967;-67
2023/10/13 14:42:48;;;;;;;;;;;;;;;23.69;52.62;97534.59;5100902;28;19950;-67
2023/10/13 14:45:16;;;;;;;;;;;;;;;23.95;53.28;97538.28;5103529;28;19920;-67
2023/10/13 14:47:43;;;;;;;;;;;;;;;24.12;49.75;97537.09;5104891;28;19924;-68
2023/10/13 14:50:19;;;;;;;;;;;;;;;24.09;50.97;97527.66;5103346;28;19938;-68
2023/10/13 14:52:49;;;;;;;;;;;;;;;24.31;49.29;97530.81;5101661;28;19925;-69